Time;durP1;ratioP1;P1;durP2;ratioP2;P2;SDS_P1;SDS_P2;PMS_P1;PMS_P2;Temp;Humidity;BMP_temperature;BMP_pressure;BME280_temperature;BME280_humidity;BME280_pressure;Samples;Min_cycle;Max_cycle;Signal;HPM_P1;HPM_P2
2022/04/28 00:00:13;;;;;;;;;;;;;;;;;;344177;28;868;-26
2022/04/28 00:00:24;;;;;;;;;;;;;;;;;;344418;28;997;-22
2022/04/28 00:00:34;;;;;;;;;;;;;;;;;;344543;28;902;-22
2022/04/28 00:00:45;;;;;;;;;;;;;;;;;;342929;28;1084;-24
2022/04/28 00:00:55;;;;;;;;;;;;;;;;;;343143;28;1096;-23
2022/04/28 00:01:06;;;;;;;;;;;;;;;;;;342982;28;854;-25
2022/04/28 00:01:18;;;;;;;;;;;;;;;;;;342779;28;1089;-24
2022/04/28 00:01:34;;;;;;;;;;;;;;;;;;343022;28;958;-26
2022/04/28 00:01:45;;;;;;;;;;;;;;;;;;344399;28;874;-23
2022/04/28 00:01:55;;;;;;;;;;;;;;;;;;344577;28;803;-23
2022/04/28 00:02:08;;;;;;;;;;;;;;;;;;344288;28;875;-23
2022/04/28 00:02:21;;;;;;;;;;;;;;;;;;344554;28;843;-23
2022/04/28 00:02:33;;;;;;;;;;;;;;;;;;344427;28;895;-24
2022/04/28 00:02:44;;;;;;;;;;;;;;;;;;345529;28;918;-23
2022/04/28 00:02:54;;;;;;;;;;;;;;;;;;346023;28;819;-24
2022/04/28 00:03:04;;;;;;;;;;;;;;;;;;345744;28;966;-25
2022/04/28 00:03:15;;;;;;;;;;;;;;;;;;346003;28;941;-23
2022/04/28 00:03:26;;;;;;;;;;;;;;;;;;345837;28;949;-26
2022/04/28 00:03:36;;;;;;;;;;;;;;;;;;346183;28;865;-24
2022/04/28 00:03:46;;;;;;;;;;;;;;;;;;346004;28;1914;-22
2022/04/28 00:03:57;;;;;;;;;;;;;;;;;;345718;28;1113;-27
2022/04/28 00:04:07;;;;;;;;;;;;;;;;;;345507;28;1120;-24
2022/04/28 00:04:18;;;;;;;;;;;;;;;;;;345972;28;873;-24
2022/04/28 00:04:28;;;;;;;;;;;;;;;;;;345980;28;862;-25
2022/04/28 00:04:38;;;;;;;;;;;;;;;;;;345781;28;929;-23
2022/04/28 00:04:50;;;;;;;;;;;;;;;;;;346082;28;905;-23
2022/04/28 00:05:01;;;;;;;;;;;;;;;;;;345979;28;794;-23
2022/04/28 00:05:13;;;;;;;;;;;;;;;;;;345763;28;965;-23
2022/04/28 00:05:26;;;;;;;;;;;;;;;;;;346065;28;802;-24
2022/04/28 00:05:37;;;;;;;;;;;;;;;;;;346007;28;886;-24
2022/04/28 00:05:47;;;;;;;;;;;;;;;;;;345980;28;1130;-23
2022/04/28 00:05:58;;;;;;;;;;;;;;;;;;345657;28;1055;-25
2022/04/28 00:06:11;;;;;;;;;;;;;;;;;;345921;28;1215;-23
2022/04/28 00:06:21;;;;;;;;;;;;;;;;;;345912;28;1613;-22
2022/04/28 00:06:32;;;;;;;;;;;;;;;;;;345922;28;911;-23
2022/04/28 00:06:42;;;;;;;;;;;;;;;;;;345901;28;817;-23
2022/04/28 00:06:53;;;;;;;;;;;;;;;;;;345954;28;648;-23
2022/04/28 00:07:05;;;;;;;;;;;;;;;;;;345767;28;850;-23
2022/04/28 00:07:15;;;;;;;;;;;;;;;;;;345774;28;1102;-24
2022/04/28 00:07:26;;;;;;;;;;;;;;;;;;345958;28;898;-23
2022/04/28 00:07:37;;;;;;;;;;;;;;;;;;345895;28;1731;-23
2022/04/28 00:07:47;;;;;;;;;;;;;;;;;;345874;28;1017;-23
2022/04/28 00:07:57;;;;;;;;;;;;;;;;;;345776;28;854;-24
2022/04/28 00:08:10;;;;;;;;;;;;;;;;;;345434;28;790;-23
2022/04/28 00:08:21;;;;;;;;;;;;;;;;;;345726;28;1222;-23
2022/04/28 00:08:32;;;;;;;;;;;;;;;;;;345868;28;1062;-23
2022/04/28 00:08:42;;;;;;;;;;;;;;;;;;345824;28;870;-24
2022/04/28 00:08:53;;;;;;;;;;;;;;;;;;346068;28;814;-24
2022/04/28 00:09:04;;;;;;;;;;;;;;;;;;345711;28;957;-25
2022/04/28 00:09:15;;;;;;;;;;;;;;;;;;345876;28;981;-24
2022/04/28 00:09:25;;;;;;;;;;;;;;;;;;346028;28;1000;-24
2022/04/28 00:09:35;;;;;;;;;;;;;;;;;;346040;28;823;-24
2022/04/28 00:09:48;;;;;;;;;;;;;;;;;;345388;28;1657;-23
2022/04/28 00:09:59;;;;;;;;;;;;;;;;;;345917;28;1082;-25
2022/04/28 00:10:10;;;;;;;;;;;;;;;;;;345845;28;1008;-25
2022/04/28 00:10:20;;;;;;;;;;;;;;;;;;345860;28;1175;-22
2022/04/28 00:10:30;;;;;;;;;;;;;;;;;;346027;28;838;-24
2022/04/28 00:10:41;;;;;;;;;;;;;;;;;;345965;28;803;-24
2022/04/28 00:10:51;;;;;;;;;;;;;;;;;;346118;28;831;-23
2022/04/28 00:11:02;;;;;;;;;;;;;;;;;;345760;28;1119;-24
2022/04/28 00:11:12;;;;;;;;;;;;;;;;;;345795;28;854;-24
2022/04/28 00:11:24;;;;;;;;;;;;;;;;;;345936;28;889;-23
2022/04/28 00:11:34;;;;;;;;;;;;;;;;;;346037;28;953;-26
2022/04/28 00:11:45;;;;;;;;;;;;;;;;;;345825;28;1028;-24
2022/04/28 00:11:55;;;;;;;;;;;;;;;;;;346168;28;862;-23
2022/04/28 00:12:05;;;;;;;;;;;;;;;;;;345718;28;877;-24
2022/04/28 00:12:19;;;;;;;;;;;;;;;;;;345702;28;1095;-23
2022/04/28 00:12:30;;;;;;;;;;;;;;;;;;346365;28;1006;-23
2022/04/28 00:12:41;;;;;;;;;;;;;;;;;;347360;28;854;-24
2022/04/28 00:12:51;;;;;;;;;;;;;;;;;;347353;28;1047;-23
2022/04/28 00:13:02;;;;;;;;;;;;;;;;;;347365;28;870;-24
2022/04/28 00:13:13;;;;;;;;;;;;;;;;;;347055;28;865;-24
2022/04/28 00:13:23;;;;;;;;;;;;;;;;;;347301;28;936;-23
2022/04/28 00:13:34;;;;;;;;;;;;;;;;;;347325;28;1167;-25
2022/04/28 00:13:44;;;;;;;;;;;;;;;;;;347176;28;1054;-23
2022/04/28 00:13:54;;;;;;;;;;;;;;;;;;347417;28;893;-26
2022/04/28 00:14:07;;;;;;;;;;;;;;;;;;347350;28;802;-24
2022/04/28 00:14:18;;;;;;;;;;;;;;;;;;347289;28;852;-23
2022/04/28 00:14:30;;;;;;;;;;;;;;;;;;347484;28;947;-23
2022/04/28 00:14:43;;;;;;;;;;;;;;;;;;347358;28;941;-24
2022/04/28 00:14:53;;;;;;;;;;;;;;;;;;347275;28;933;-26
2022/04/28 00:15:04;;;;;;;;;;;;;;;;;;347254;28;1027;-24
2022/04/28 00:15:15;;;;;;;;;;;;;;;;;;347292;28;782;-23
2022/04/28 00:15:26;;;;;;;;;;;;;;;;;;346926;28;988;-24
2022/04/28 00:15:37;;;;;;;;;;;;;;;;;;347260;28;798;-24
2022/04/28 00:15:47;;;;;;;;;;;;;;;;;;347457;28;837;-24
2022/04/28 00:15:58;;;;;;;;;;;;;;;;;;347344;28;1000;-24
2022/04/28 00:16:08;;;;;;;;;;;;;;;;;;347079;28;930;-24
2022/04/28 00:16:18;;;;;;;;;;;;;;;;;;347186;28;799;-23
2022/04/28 00:16:29;;;;;;;;;;;;;;;;;;347439;28;932;-23
2022/04/28 00:16:39;;;;;;;;;;;;;;;;;;347359;28;875;-23
2022/04/28 00:16:49;;;;;;;;;;;;;;;;;;347172;28;949;-23
2022/04/28 00:17:00;;;;;;;;;;;;;;;;;;347449;28;870;-23
2022/04/28 00:17:10;;;;;;;;;;;;;;;;;;347156;28;818;-24
2022/04/28 00:17:24;;;;;;;;;;;;;;;;;;347045;28;1008;-24
2022/04/28 00:17:34;;;;;;;;;;;;;;;;;;347477;28;854;-24
2022/04/28 00:17:45;;;;;;;;;;;;;;;;;;347253;28;997;-23
2022/04/28 00:17:59;;;;;;;;;;;;;;;;;;347401;28;1299;-25
2022/04/28 00:18:09;;;;;;;;;;;;;;;;;;347185;28;751;-26
2022/04/28 00:18:19;;;;;;;;;;;;;;;;;;347384;28;949;-25
2022/04/28 00:18:30;;;;;;;;;;;;;;;;;;347424;28;923;-23
2022/04/28 00:18:40;;;;;;;;;;;;;;;;;;347264;28;961;-23
2022/04/28 00:18:50;;;;;;;;;;;;;;;;;;347261;28;1655;-24
2022/04/28 00:19:01;;;;;;;;;;;;;;;;;;347324;28;672;-24
2022/04/28 00:19:11;;;;;;;;;;;;;;;;;;347211;28;894;-23
2022/04/28 00:19:22;;;;;;;;;;;;;;;;;;347052;28;970;-24
2022/04/28 00:19:32;;;;;;;;;;;;;;;;;;347472;28;976;-23
2022/04/28 00:19:43;;;;;;;;;;;;;;;;;;347331;28;823;-24
2022/04/28 00:19:53;;;;;;;;;;;;;;;;;;347288;28;1055;-24
2022/04/28 00:20:04;;;;;;;;;;;;;;;;;;347195;28;823;-23
2022/04/28 00:20:14;;;;;;;;;;;;;;;;;;347150;28;961;-23
2022/04/28 00:20:25;;;;;;;;;;;;;;;;;;347234;28;898;-24
2022/04/28 00:20:36;;;;;;;;;;;;;;;;;;347298;28;1782;-24
2022/04/28 00:20:46;;;;;;;;;;;;;;;;;;347384;28;1160;-24
2022/04/28 00:20:56;;;;;;;;;;;;;;;;;;347175;28;869;-26
2022/04/28 00:21:07;;;;;;;;;;;;;;;;;;347093;28;981;-24
2022/04/28 00:21:17;;;;;;;;;;;;;;;;;;347101;28;1286;-25
2022/04/28 00:21:27;;;;;;;;;;;;;;;;;;347355;28;945;-23
2022/04/28 00:21:37;;;;;;;;;;;;;;;;;;347245;28;933;-25
2022/04/28 00:21:51;;;;;;;;;;;;;;;;;;347319;28;964;-22
2022/04/28 00:22:01;;;;;;;;;;;;;;;;;;347270;28;1000;-24
2022/04/28 00:22:13;;;;;;;;;;;;;;;;;;346900;28;920;-26
2022/04/28 00:22:24;;;;;;;;;;;;;;;;;;347140;28;1129;-26
2022/04/28 00:22:34;;;;;;;;;;;;;;;;;;347400;28;1289;-23
2022/04/28 00:22:44;;;;;;;;;;;;;;;;;;347295;28;902;-24
2022/04/28 00:22:55;;;;;;;;;;;;;;;;;;347029;28;972;-26
2022/04/28 00:23:05;;;;;;;;;;;;;;;;;;346961;28;923;-26
2022/04/28 00:23:15;;;;;;;;;;;;;;;;;;347519;28;857;-23
2022/04/28 00:23:26;;;;;;;;;;;;;;;;;;347342;28;933;-25
2022/04/28 00:23:36;;;;;;;;;;;;;;;;;;347329;28;939;-25
2022/04/28 00:23:46;;;;;;;;;;;;;;;;;;347178;28;1969;-24
2022/04/28 00:23:56;;;;;;;;;;;;;;;;;;347364;28;1070;-24
2022/04/28 00:24:07;;;;;;;;;;;;;;;;;;347174;28;942;-23
2022/04/28 00:24:17;;;;;;;;;;;;;;;;;;347194;28;1037;-24
2022/04/28 00:24:27;;;;;;;;;;;;;;;;;;347351;28;814;-22
2022/04/28 00:24:40;;;;;;;;;;;;;;;;;;347367;28;902;-23
2022/04/28 00:24:51;;;;;;;;;;;;;;;;;;347512;28;913;-24
2022/04/28 00:25:02;;;;;;;;;;;;;;;;;;347185;28;1462;-24
2022/04/28 00:25:12;;;;;;;;;;;;;;;;;;347280;28;787;-24
2022/04/28 00:25:23;;;;;;;;;;;;;;;;;;347373;28;893;-24
2022/04/28 00:25:33;;;;;;;;;;;;;;;;;;347302;28;838;-24
2022/04/28 00:25:43;;;;;;;;;;;;;;;;;;347220;28;1056;-22
2022/04/28 00:25:54;;;;;;;;;;;;;;;;;;347419;28;953;-24
2022/04/28 00:26:07;;;;;;;;;;;;;;;;;;347195;28;909;-24
2022/04/28 00:26:17;;;;;;;;;;;;;;;;;;347231;28;1118;-24
2022/04/28 00:26:27;;;;;;;;;;;;;;;;;;347072;28;1019;-25
2022/04/28 00:26:38;;;;;;;;;;;;;;;;;;347450;28;818;-24
2022/04/28 00:26:50;;;;;;;;;;;;;;;;;;347174;28;887;-23
2022/04/28 00:27:01;;;;;;;;;;;;;;;;;;347193;28;937;-24
2022/04/28 00:27:17;;;;;;;;;;;;;;;;;;347054;28;905;-24
2022/04/28 00:27:29;;;;;;;;;;;;;;;;;;347245;28;930;-24
2022/04/28 00:27:39;;;;;;;;;;;;;;;;;;347170;28;901;-24
2022/04/28 00:27:50;;;;;;;;;;;;;;;;;;347428;28;902;-24
2022/04/28 00:28:01;;;;;;;;;;;;;;;;;;345849;28;1037;-24
2022/04/28 00:28:11;;;;;;;;;;;;;;;;;;344043;28;1152;-26
2022/04/28 00:28:22;;;;;;;;;;;;;;;;;;344460;28;960;-24
2022/04/28 00:28:32;;;;;;;;;;;;;;;;;;344525;28;795;-24
2022/04/28 00:28:42;;;;;;;;;;;;;;;;;;344541;28;901;-23
2022/04/28 00:28:53;;;;;;;;;;;;;;;;;;342908;28;950;-25
2022/04/28 00:29:03;;;;;;;;;;;;;;;;;;343189;28;838;-23
2022/04/28 00:29:13;;;;;;;;;;;;;;;;;;343066;28;882;-26
2022/04/28 00:29:24;;;;;;;;;;;;;;;;;;342879;28;1301;-24
2022/04/28 00:29:34;;;;;;;;;;;;;;;;;;343159;28;827;-23
2022/04/28 00:29:45;;;;;;;;;;;;;;;;;;343194;28;822;-23
2022/04/28 00:29:56;;;;;;;;;;;;;;;;;;343668;28;965;-24
2022/04/28 00:30:07;;;;;;;;;;;;;;;;;;344813;28;945;-24
2022/04/28 00:30:18;;;;;;;;;;;;;;;;;;344071;28;1420;-25
2022/04/28 00:30:28;;;;;;;;;;;;;;;;;;344524;28;835;-23
2022/04/28 00:30:39;;;;;;;;;;;;;;;;;;344248;28;1766;-22
2022/04/28 00:30:52;;;;;;;;;;;;;;;;;;345289;28;918;-24
2022/04/28 00:31:02;;;;;;;;;;;;;;;;;;345861;28;898;-24
2022/04/28 00:31:13;;;;;;;;;;;;;;;;;;344151;28;1124;-26
2022/04/28 00:31:26;;;;;;;;;;;;;;;;;;342945;28;1155;-23
2022/04/28 00:31:36;;;;;;;;;;;;;;;;;;344558;28;1161;-24
2022/04/28 00:31:47;;;;;;;;;;;;;;;;;;344658;28;961;-24
2022/04/28 00:31:57;;;;;;;;;;;;;;;;;;344456;28;1001;-25
2022/04/28 00:32:08;;;;;;;;;;;;;;;;;;344438;28;803;-23
2022/04/28 00:32:18;;;;;;;;;;;;;;;;;;343104;28;1221;-24
2022/04/28 00:32:29;;;;;;;;;;;;;;;;;;341992;28;854;-23
2022/04/28 00:32:40;;;;;;;;;;;;;;;;;;341613;28;992;-26
2022/04/28 00:32:53;;;;;;;;;;;;;;;;;;340589;28;1180;-24
2022/04/28 00:33:04;;;;;;;;;;;;;;;;;;340521;29;732;-23
2022/04/28 00:33:14;;;;;;;;;;;;;;;;;;340164;29;1106;-23
2022/04/28 00:33:24;;;;;;;;;;;;;;;;;;341549;28;1016;-24
2022/04/28 00:33:35;;;;;;;;;;;;;;;;;;342900;28;953;-25
2022/04/28 00:33:48;;;;;;;;;;;;;;;;;;343169;28;764;-26
2022/04/28 00:34:00;;;;;;;;;;;;;;;;;;342989;28;1227;-24
2022/04/28 00:34:11;;;;;;;;;;;;;;;;;;343227;28;787;-23
2022/04/28 00:34:21;;;;;;;;;;;;;;;;;;343091;28;1107;-24
2022/04/28 00:34:31;;;;;;;;;;;;;;;;;;343121;28;1033;-23
2022/04/28 00:34:42;;;;;;;;;;;;;;;;;;343158;28;866;-24
2022/04/28 00:34:52;;;;;;;;;;;;;;;;;;344702;28;799;-25
2022/04/28 00:35:02;;;;;;;;;;;;;;;;;;344674;28;925;-23
2022/04/28 00:35:14;;;;;;;;;;;;;;;;;;345811;28;928;-23
2022/04/28 00:35:24;;;;;;;;;;;;;;;;;;346159;28;857;-24
2022/04/28 00:35:38;;;;;;;;;;;;;;;;;;345052;28;1069;-23
2022/04/28 00:35:49;;;;;;;;;;;;;;;;;;343376;28;1326;-23
2022/04/28 00:35:59;;;;;;;;;;;;;;;;;;343463;28;906;-23
2022/04/28 00:36:09;;;;;;;;;;;;;;;;;;341988;28;823;-23
2022/04/28 00:36:21;;;;;;;;;;;;;;;;;;343136;28;1508;-30
2022/04/28 00:36:31;;;;;;;;;;;;;;;;;;343315;28;1175;-23
2022/04/28 00:36:41;;;;;;;;;;;;;;;;;;343414;28;843;-23
2022/04/28 00:36:52;;;;;;;;;;;;;;;;;;343514;28;835;-24
2022/04/28 00:37:02;;;;;;;;;;;;;;;;;;343305;28;954;-23
2022/04/28 00:37:13;;;;;;;;;;;;;;;;;;343226;28;850;-27
2022/04/28 00:37:24;;;;;;;;;;;;;;;;;;343514;28;941;-24
2022/04/28 00:37:34;;;;;;;;;;;;;;;;;;344191;28;933;-24
2022/04/28 00:37:44;;;;;;;;;;;;;;;;;;344891;28;1333;-24
2022/04/28 00:37:55;;;;;;;;;;;;;;;;;;346241;28;975;-24
2022/04/28 00:38:05;;;;;;;;;;;;;;;;;;345470;28;799;-24
2022/04/28 00:38:15;;;;;;;;;;;;;;;;;;344953;28;954;-23
2022/04/28 00:38:26;;;;;;;;;;;;;;;;;;344558;28;1277;-23
2022/04/28 00:38:36;;;;;;;;;;;;;;;;;;344780;28;815;-24
2022/04/28 00:38:47;;;;;;;;;;;;;;;;;;345390;28;910;-23
2022/04/28 00:38:57;;;;;;;;;;;;;;;;;;346090;28;894;-24
2022/04/28 00:39:07;;;;;;;;;;;;;;;;;;346014;28;873;-24
2022/04/28 00:39:18;;;;;;;;;;;;;;;;;;346092;28;847;-26
2022/04/28 00:39:29;;;;;;;;;;;;;;;;;;345695;28;944;-22
2022/04/28 00:39:39;;;;;;;;;;;;;;;;;;345552;28;1045;-23
2022/04/28 00:39:50;;;;;;;;;;;;;;;;;;347664;28;877;-23
2022/04/28 00:40:01;;;;;;;;;;;;;;;;;;345878;28;1207;-24
2022/04/28 00:40:12;;;;;;;;;;;;;;;;;;345904;28;960;-23
2022/04/28 00:40:22;;;;;;;;;;;;;;;;;;346126;28;826;-23
2022/04/28 00:40:32;;;;;;;;;;;;;;;;;;346018;28;955;-23
2022/04/28 00:40:43;;;;;;;;;;;;;;;;;;346053;28;1694;-24
2022/04/28 00:40:54;;;;;;;;;;;;;;;;;;345882;28;1091;-27
2022/04/28 00:41:05;;;;;;;;;;;;;;;;;;346193;28;763;-23
2022/04/28 00:41:16;;;;;;;;;;;;;;;;;;344757;28;1177;-23
2022/04/28 00:41:26;;;;;;;;;;;;;;;;;;344802;28;826;-26
2022/04/28 00:41:37;;;;;;;;;;;;;;;;;;344701;28;1039;-23
2022/04/28 00:41:47;;;;;;;;;;;;;;;;;;344856;28;854;-23
2022/04/28 00:41:57;;;;;;;;;;;;;;;;;;345537;28;874;-24
2022/04/28 00:42:08;;;;;;;;;;;;;;;;;;344466;28;1437;-23
2022/04/28 00:42:20;;;;;;;;;;;;;;;;;;344756;28;835;-23
2022/04/28 00:42:30;;;;;;;;;;;;;;;;;;344788;28;787;-23
2022/04/28 00:42:40;;;;;;;;;;;;;;;;;;344700;28;846;-23
2022/04/28 00:42:51;;;;;;;;;;;;;;;;;;344691;28;985;-23
2022/04/28 00:43:19;;;;;;;;;;;;;;;;;;343308;28;1114;-25
2022/04/28 00:43:30;;;;;;;;;;;;;;;;;;344661;28;1189;-23
2022/04/28 00:43:47;;;;;;;;;;;;;;;;;;344807;28;1907;-23
2022/04/28 00:43:58;;;;;;;;;;;;;;;;;;344794;28;882;-24
2022/04/28 00:44:11;;;;;;;;;;;;;;;;;;345721;28;1101;-24
2022/04/28 00:44:22;;;;;;;;;;;;;;;;;;345607;28;1087;-24
2022/04/28 00:44:32;;;;;;;;;;;;;;;;;;346127;28;826;-25
2022/04/28 00:44:43;;;;;;;;;;;;;;;;;;344617;28;1574;-24
2022/04/28 00:44:54;;;;;;;;;;;;;;;;;;344883;28;1376;-24
2022/04/28 00:45:04;;;;;;;;;;;;;;;;;;344292;28;961;-24
2022/04/28 00:45:15;;;;;;;;;;;;;;;;;;343201;28;1101;-23
2022/04/28 00:45:25;;;;;;;;;;;;;;;;;;343244;28;1600;-23
2022/04/28 00:45:35;;;;;;;;;;;;;;;;;;343033;28;1205;-23
2022/04/28 00:45:49;;;;;;;;;;;;;;;;;;343411;28;989;-23
2022/04/28 00:45:59;;;;;;;;;;;;;;;;;;343154;28;979;-24
2022/04/28 00:46:10;;;;;;;;;;;;;;;;;;343263;28;1738;-23
2022/04/28 00:46:21;;;;;;;;;;;;;;;;;;343456;28;941;-23
2022/04/28 00:46:31;;;;;;;;;;;;;;;;;;343465;28;838;-24
2022/04/28 00:46:44;;;;;;;;;;;;;;;;;;344190;28;1186;-24
2022/04/28 00:46:54;;;;;;;;;;;;;;;;;;346103;28;971;-23
2022/04/28 00:47:07;;;;;;;;;;;;;;;;;;344695;28;1180;-23
2022/04/28 00:47:22;;;;;;;;;;;;;;;;;;346046;28;988;-24
2022/04/28 00:50:39;;;;;;;;;;;;;;;;;;346995;28;985;-24
2022/04/28 00:50:50;;;;;;;;;;;;;;;;;;346192;28;771;-24
2022/04/28 00:51:02;;;;;;;;;;;;;;;;;;344528;28;1418;-23
2022/04/28 00:51:13;;;;;;;;;;;;;;;;;;344240;28;1360;-25
2022/04/28 00:51:24;;;;;;;;;;;;;;;;;;344353;28;903;-23
2022/04/28 00:51:37;;;;;;;;;;;;;;;;;;343353;28;1336;-24
2022/04/28 00:51:48;;;;;;;;;;;;;;;;;;343389;28;1139;-26
2022/04/28 00:51:59;;;;;;;;;;;;;;;;;;343386;28;1145;-24
2022/04/28 00:52:09;;;;;;;;;;;;;;;;;;344265;28;1047;-24
2022/04/28 00:52:23;;;;;;;;;;;;;;;;;;344386;28;930;-26
2022/04/28 00:52:34;;;;;;;;;;;;;;;;;;344546;28;788;-24
2022/04/28 00:52:44;;;;;;;;;;;;;;;;;;344800;28;763;-26
2022/04/28 00:52:54;;;;;;;;;;;;;;;;;;345143;28;1000;-23
2022/04/28 00:53:07;;;;;;;;;;;;;;;;;;345838;28;1148;-24
2022/04/28 00:53:20;;;;;;;;;;;;;;;;;;344718;28;825;-24
2022/04/28 00:53:32;;;;;;;;;;;;;;;;;;346116;28;1319;-22
2022/04/28 00:53:44;;;;;;;;;;;;;;;;;;346002;28;1319;-23
2022/04/28 00:53:55;;;;;;;;;;;;;;;;;;343298;28;1157;-26
2022/04/28 00:54:06;;;;;;;;;;;;;;;;;;343308;28;787;-23
2022/04/28 00:54:16;;;;;;;;;;;;;;;;;;343360;28;1229;-24
2022/04/28 00:54:28;;;;;;;;;;;;;;;;;;340844;29;1509;-24
2022/04/28 00:54:39;;;;;;;;;;;;;;;;;;340504;29;847;-24
2022/04/28 00:54:52;;;;;;;;;;;;;;;;;;339314;29;1113;-23
2022/04/28 00:55:03;;;;;;;;;;;;;;;;;;339317;29;950;-24
2022/04/28 00:55:13;;;;;;;;;;;;;;;;;;340642;29;1436;-23
2022/04/28 00:55:24;;;;;;;;;;;;;;;;;;340790;29;998;-23
2022/04/28 00:55:34;;;;;;;;;;;;;;;;;;341947;28;1169;-23
2022/04/28 00:55:45;;;;;;;;;;;;;;;;;;344814;28;1174;-24
2022/04/28 00:55:59;;;;;;;;;;;;;;;;;;344782;28;1312;-24
2022/04/28 00:56:09;;;;;;;;;;;;;;;;;;342965;28;1153;-24
2022/04/28 00:56:20;;;;;;;;;;;;;;;;;;342028;28;1236;-24
2022/04/28 00:56:31;;;;;;;;;;;;;;;;;;340819;29;1261;-25
2022/04/28 00:56:41;;;;;;;;;;;;;;;;;;340702;29;792;-23
2022/04/28 00:56:52;;;;;;;;;;;;;;;;;;339242;29;1620;-23
2022/04/28 00:57:03;;;;;;;;;;;;;;;;;;342038;28;1515;-23
2022/04/28 00:57:13;;;;;;;;;;;;;;;;;;341901;28;1308;-23
2022/04/28 00:57:24;;;;;;;;;;;;;;;;;;342024;28;872;-24
2022/04/28 00:57:34;;;;;;;;;;;;;;;;;;341983;28;1125;-26
2022/04/28 00:57:45;;;;;;;;;;;;;;;;;;343331;28;1216;-23
2022/04/28 00:57:56;;;;;;;;;;;;;;;;;;343480;28;945;-25
2022/04/28 00:58:06;;;;;;;;;;;;;;;;;;342935;28;1363;-24
2022/04/28 00:58:16;;;;;;;;;;;;;;;;;;343396;28;1364;-23
2022/04/28 00:58:27;;;;;;;;;;;;;;;;;;343556;28;782;-24
2022/04/28 00:58:41;;;;;;;;;;;;;;;;;;343211;28;1145;-24
2022/04/28 00:58:53;;;;;;;;;;;;;;;;;;343370;28;941;-25
2022/04/28 00:59:04;;;;;;;;;;;;;;;;;;344582;28;1582;-26
2022/04/28 00:59:18;;;;;;;;;;;;;;;;;;344472;28;1273;-24
2022/04/28 00:59:29;;;;;;;;;;;;;;;;;;344851;28;834;-24
2022/04/28 00:59:39;;;;;;;;;;;;;;;;;;344591;28;838;-24
2022/04/28 00:59:53;;;;;;;;;;;;;;;;;;343033;28;1639;-26
2022/04/28 01:00:04;;;;;;;;;;;;;;;;;;343163;28;1358;-24
2022/04/28 01:00:15;;;;;;;;;;;;;;;;;;343167;28;1349;-23
2022/04/28 01:00:27;;;;;;;;;;;;;;;;;;344712;28;1264;-25
2022/04/28 01:00:38;;;;;;;;;;;;;;;;;;343232;28;1315;-24
2022/04/28 01:00:49;;;;;;;;;;;;;;;;;;343366;28;803;-26
2022/04/28 01:00:59;;;;;;;;;;;;;;;;;;343387;28;925;-25
2022/04/28 01:01:09;;;;;;;;;;;;;;;;;;343127;28;1306;-26
2022/04/28 01:01:20;;;;;;;;;;;;;;;;;;343410;28;1022;-23
2022/04/28 01:01:31;;;;;;;;;;;;;;;;;;340746;28;1688;-22
2022/04/28 01:01:41;;;;;;;;;;;;;;;;;;340706;29;1256;-23
2022/04/28 01:01:51;;;;;;;;;;;;;;;;;;340587;29;923;-23
2022/04/28 01:02:04;;;;;;;;;;;;;;;;;;340695;29;1333;-23
2022/04/28 01:02:18;;;;;;;;;;;;;;;;;;340532;28;867;-23
2022/04/28 01:02:28;;;;;;;;;;;;;;;;;;342027;28;1181;-23
2022/04/28 01:02:38;;;;;;;;;;;;;;;;;;341909;28;1348;-27
2022/04/28 01:02:49;;;;;;;;;;;;;;;;;;341994;28;1242;-25
2022/04/28 01:03:00;;;;;;;;;;;;;;;;;;342070;28;1521;-23
2022/04/28 01:03:10;;;;;;;;;;;;;;;;;;342932;28;1186;-24
2022/04/28 01:03:21;;;;;;;;;;;;;;;;;;344791;28;1676;-23
2022/04/28 01:03:31;;;;;;;;;;;;;;;;;;344824;28;811;-24
2022/04/28 01:03:42;;;;;;;;;;;;;;;;;;344642;28;1965;-25
2022/04/28 01:03:55;;;;;;;;;;;;;;;;;;344749;28;949;-23
2022/04/28 01:04:08;;;;;;;;;;;;;;;;;;344835;28;811;-24
2022/04/28 01:04:22;;;;;;;;;;;;;;;;;;341937;28;1356;-23
2022/04/28 01:04:35;;;;;;;;;;;;;;;;;;342810;28;820;-25
2022/04/28 01:04:46;;;;;;;;;;;;;;;;;;342900;28;1461;-23
2022/04/28 01:04:59;;;;;;;;;;;;;;;;;;343078;28;1132;-23
2022/04/28 01:05:10;;;;;;;;;;;;;;;;;;344134;28;1718;-23
2022/04/28 01:05:20;;;;;;;;;;;;;;;;;;343477;28;1060;-25
2022/04/28 01:05:32;;;;;;;;;;;;;;;;;;343194;28;1218;-26
2022/04/28 01:05:46;;;;;;;;;;;;;;;;;;344609;28;2338;-23
2022/04/28 01:05:57;;;;;;;;;;;;;;;;;;344789;28;546;-24
2022/04/28 01:06:08;;;;;;;;;;;;;;;;;;344622;28;956;-23
2022/04/28 01:06:18;;;;;;;;;;;;;;;;;;344678;28;949;-25
2022/04/28 01:06:28;;;;;;;;;;;;;;;;;;344830;28;897;-23
2022/04/28 01:06:42;;;;;;;;;;;;;;;;;;344809;28;846;-23
2022/04/28 01:06:53;;;;;;;;;;;;;;;;;;344705;28;835;-23
2022/04/28 01:07:04;;;;;;;;;;;;;;;;;;343509;28;1372;-24
2022/04/28 01:07:15;;;;;;;;;;;;;;;;;;343210;28;1547;-22
2022/04/28 01:07:25;;;;;;;;;;;;;;;;;;343346;28;1261;-24
2022/04/28 01:07:36;;;;;;;;;;;;;;;;;;343251;28;1199;-22
2022/04/28 01:07:46;;;;;;;;;;;;;;;;;;343511;28;838;-23
2022/04/28 01:07:57;;;;;;;;;;;;;;;;;;343208;28;752;-26
2022/04/28 01:08:07;;;;;;;;;;;;;;;;;;343031;28;1132;-25
2022/04/28 01:08:18;;;;;;;;;;;;;;;;;;343307;28;954;-23
2022/04/28 01:08:28;;;;;;;;;;;;;;;;;;343526;28;958;-24
2022/04/28 01:08:40;;;;;;;;;;;;;;;;;;343323;28;1440;-28
2022/04/28 01:08:50;;;;;;;;;;;;;;;;;;344515;28;1273;-25
2022/04/28 01:09:02;;;;;;;;;;;;;;;;;;346081;28;1211;-23
2022/04/28 01:09:14;;;;;;;;;;;;;;;;;;344475;28;1030;-24
2022/04/28 01:09:24;;;;;;;;;;;;;;;;;;340508;28;1785;-26
2022/04/28 01:09:36;;;;;;;;;;;;;;;;;;341851;28;1336;-24
2022/04/28 01:09:47;;;;;;;;;;;;;;;;;;342189;28;1165;-24
2022/04/28 01:10:01;;;;;;;;;;;;;;;;;;341962;28;1202;-23
2022/04/28 01:10:16;;;;;;;;;;;;;;;;;;343052;28;2218;-24
2022/04/28 01:10:26;;;;;;;;;;;;;;;;;;342198;28;1268;-24
2022/04/28 01:10:36;;;;;;;;;;;;;;;;;;341990;28;1295;-27
2022/04/28 01:10:47;;;;;;;;;;;;;;;;;;340602;28;1129;-29
2022/04/28 01:10:58;;;;;;;;;;;;;;;;;;341855;28;1259;-23
2022/04/28 01:11:10;;;;;;;;;;;;;;;;;;341711;28;1380;-24
2022/04/28 01:11:31;;;;;;;;;;;;;;;;;;343315;28;1729;-24
2022/04/28 01:11:57;;;;;;;;;;;;;;;;;;343302;28;1577;-24
2022/04/28 01:12:15;;;;;;;;;;;;;;;;;;342950;28;1006;-26
2022/04/28 01:12:28;;;;;;;;;;;;;;;;;;343390;28;1219;-23
2022/04/28 01:12:41;;;;;;;;;;;;;;;;;;343351;28;920;-24
2022/04/28 01:12:52;;;;;;;;;;;;;;;;;;341995;28;1647;-24
2022/04/28 01:13:03;;;;;;;;;;;;;;;;;;341838;28;1481;-23
2022/04/28 01:13:14;;;;;;;;;;;;;;;;;;340275;29;1421;-24
2022/04/28 01:13:30;;;;;;;;;;;;;;;;;;340787;29;1646;-23
2022/04/28 01:13:49;;;;;;;;;;;;;;;;;;339220;29;1281;-25
2022/04/28 01:14:11;;;;;;;;;;;;;;;;;;340403;29;1491;-25
2022/04/28 01:14:28;;;;;;;;;;;;;;;;;;342063;28;1598;-23
2022/04/28 01:14:45;;;;;;;;;;;;;;;;;;340598;29;1550;-23
2022/04/28 01:14:55;;;;;;;;;;;;;;;;;;343098;28;1597;-24
2022/04/28 01:15:07;;;;;;;;;;;;;;;;;;343216;28;1330;-22
2022/04/28 01:15:17;;;;;;;;;;;;;;;;;;341865;28;1406;-23
2022/04/28 01:15:28;;;;;;;;;;;;;;;;;;342135;28;1358;-23
2022/04/28 01:15:48;;;;;;;;;;;;;;;;;;342028;28;991;-23
2022/04/28 01:15:59;;;;;;;;;;;;;;;;;;340624;28;1309;-23
2022/04/28 01:16:09;;;;;;;;;;;;;;;;;;339110;28;1173;-25
2022/04/28 01:16:20;;;;;;;;;;;;;;;;;;339369;29;1462;-25
2022/04/28 01:16:30;;;;;;;;;;;;;;;;;;340517;29;1183;-23
2022/04/28 01:16:40;;;;;;;;;;;;;;;;;;342036;28;1279;-24
2022/04/28 01:16:51;;;;;;;;;;;;;;;;;;342002;28;1190;-23
2022/04/28 01:17:04;;;;;;;;;;;;;;;;;;342126;28;934;-24
2022/04/28 01:17:16;;;;;;;;;;;;;;;;;;342885;28;2020;-24
2022/04/28 01:17:32;;;;;;;;;;;;;;;;;;341932;28;1520;-25
2022/04/28 01:17:46;;;;;;;;;;;;;;;;;;343281;28;1347;-24
2022/04/28 01:17:56;;;;;;;;;;;;;;;;;;343297;28;799;-24
2022/04/28 01:18:06;;;;;;;;;;;;;;;;;;343243;28;949;-28
2022/04/28 01:18:17;;;;;;;;;;;;;;;;;;340678;28;879;-25
2022/04/28 01:18:27;;;;;;;;;;;;;;;;;;340459;29;1231;-24
2022/04/28 01:18:38;;;;;;;;;;;;;;;;;;340792;29;834;-25
2022/04/28 01:18:48;;;;;;;;;;;;;;;;;;342102;28;1254;-24
2022/04/28 01:18:59;;;;;;;;;;;;;;;;;;340511;29;1160;-24
2022/04/28 01:19:10;;;;;;;;;;;;;;;;;;343040;28;1301;-24
2022/04/28 01:19:21;;;;;;;;;;;;;;;;;;342053;28;1654;-23
2022/04/28 01:19:32;;;;;;;;;;;;;;;;;;342066;28;791;-24
2022/04/28 01:19:47;;;;;;;;;;;;;;;;;;343147;28;1194;-24
2022/04/28 01:19:57;;;;;;;;;;;;;;;;;;343305;28;965;-23
2022/04/28 01:20:08;;;;;;;;;;;;;;;;;;344417;28;1361;-24
2022/04/28 01:20:21;;;;;;;;;;;;;;;;;;344582;28;1017;-24
2022/04/28 01:20:31;;;;;;;;;;;;;;;;;;344705;28;980;-24
2022/04/28 01:20:42;;;;;;;;;;;;;;;;;;342108;28;1106;-23
2022/04/28 01:20:52;;;;;;;;;;;;;;;;;;341887;28;1291;-24
2022/04/28 01:21:12;;;;;;;;;;;;;;;;;;340709;29;1185;-23
2022/04/28 01:21:24;;;;;;;;;;;;;;;;;;338042;29;1152;-23
2022/04/28 01:21:38;;;;;;;;;;;;;;;;;;339724;29;1380;-23
2022/04/28 01:21:57;;;;;;;;;;;;;;;;;;340449;29;1726;-23
2022/04/28 01:22:10;;;;;;;;;;;;;;;;;;342863;28;835;-25
2022/04/28 01:22:25;;;;;;;;;;;;;;;;;;344642;28;990;-24
2022/04/28 01:22:35;;;;;;;;;;;;;;;;;;344668;28;810;-25
2022/04/28 01:22:48;;;;;;;;;;;;;;;;;;344669;28;1533;-24
2022/04/28 01:22:59;;;;;;;;;;;;;;;;;;341909;28;1256;-26
2022/04/28 01:23:09;;;;;;;;;;;;;;;;;;341752;28;838;-27
2022/04/28 01:23:20;;;;;;;;;;;;;;;;;;342033;28;1352;-23
2022/04/28 01:23:32;;;;;;;;;;;;;;;;;;341820;28;1263;-25
2022/04/28 01:23:44;;;;;;;;;;;;;;;;;;340700;29;1974;-24
2022/04/28 01:23:58;;;;;;;;;;;;;;;;;;340550;28;1005;-24